createdAt,value
2018-01-22T00:03:21.283Z,14.70
2018-01-22T00:09:24.677Z,15.50
2018-01-22T00:15:28.114Z,14.57
2018-01-22T00:21:31.558Z,16.07
2018-01-22T00:27:35.750Z,16.27
2018-01-22T00:33:39.150Z,14.77
2018-01-22T00:39:42.634Z,15.87
2018-01-22T00:45:46.779Z,15.70
2018-01-22T00:51:50.970Z,14.07
2018-01-22T00:57:54.384Z,14.70
2018-01-22T01:03:57.812Z,14.47
2018-01-22T01:10:01.217Z,14.63
2018-01-22T01:16:05.585Z,12.70
2018-01-22T01:22:09.020Z,13.97
2018-01-22T01:28:13.188Z,12.73
2018-01-22T01:34:16.638Z,13.63
2018-01-22T01:40:20.886Z,13.80
2018-01-22T01:46:24.311Z,13.70
2018-01-22T01:52:27.722Z,13.50
2018-01-22T01:58:31.150Z,12.87
2018-01-22T02:04:34.563Z,13.00
2018-01-22T02:10:37.976Z,12.03
2018-01-22T02:16:41.371Z,12.20
2018-01-22T02:22:44.795Z,11.73
2018-01-22T02:28:48.232Z,12.30
2018-01-22T02:34:51.643Z,12.00
2018-01-22T02:40:55.052Z,13.10
2018-01-22T02:46:58.459Z,12.27
2018-01-22T02:53:01.880Z,12.80
2018-01-22T02:59:05.283Z,13.60
2018-01-22T03:05:08.695Z,15.37
2018-01-22T03:11:12.843Z,10.20
2018-01-22T03:17:16.261Z,13.53
2018-01-22T03:23:19.657Z,13.70
2018-01-22T03:29:23.825Z,13.03
2018-01-22T03:35:27.228Z,12.10
2018-01-22T03:41:30.894Z,14.70
2018-01-22T03:47:34.315Z,13.47
2018-01-22T03:53:37.728Z,11.90
2018-01-22T03:59:41.120Z,13.77
2018-01-22T04:05:44.579Z,12.67
2018-01-22T04:11:48.003Z,12.00
2018-01-22T04:17:51.417Z,11.63
2018-01-22T04:23:54.824Z,12.03
2018-01-22T04:29:58.263Z,13.07
2018-01-22T04:36:01.686Z,12.20
2018-01-22T04:42:05.152Z,13.70
2018-01-22T04:48:08.547Z,12.10
2018-01-22T04:54:12.732Z,13.47
2018-01-22T05:00:16.875Z,13.37
2018-01-22T05:06:20.281Z,13.00
2018-01-22T05:12:23.720Z,13.20
2018-01-22T05:18:27.116Z,13.50
2018-01-22T05:24:30.520Z,13.67
2018-01-22T05:30:33.918Z,12.27
2018-01-22T05:36:38.087Z,12.07
2018-01-22T05:42:41.506Z,12.47
2018-01-22T05:48:44.930Z,12.60
2018-01-22T05:54:48.329Z,11.73
2018-01-22T06:00:51.714Z,12.40
2018-01-22T06:06:55.132Z,11.97
2018-01-22T06:12:58.529Z,12.30
2018-01-22T06:19:01.995Z,13.30
2018-01-22T06:25:06.177Z,11.90
2018-01-22T06:31:09.603Z,14.40
2018-01-22T06:37:13.002Z,12.90
2018-01-22T06:43:16.426Z,12.40
2018-01-22T06:49:19.853Z,12.30
2018-01-22T06:55:23.286Z,17.73
2018-01-22T07:01:26.706Z,13.90
2018-01-22T07:07:30.381Z,13.40
2018-01-22T07:13:33.785Z,12.97
2018-01-22T07:19:37.956Z,14.43
2018-01-22T07:25:41.958Z,12.37
2018-01-22T07:31:45.366Z,15.17
2018-01-22T07:37:49.544Z,16.00
2018-01-22T07:43:52.948Z,16.60
2018-01-22T07:49:56.341Z,16.60
2018-01-22T07:56:00.549Z,16.40
2018-01-22T08:02:03.961Z,32.77
2018-01-22T08:08:07.399Z,13.73
2018-01-22T08:14:10.831Z,13.47
2018-01-22T08:20:15.036Z,13.87
2018-01-22T08:26:18.479Z,13.33
2018-01-22T08:32:21.903Z,11.97
2018-01-22T08:38:25.317Z,12.80
2018-01-22T08:44:28.710Z,10.10
2018-01-22T08:50:32.148Z,12.60
2018-01-22T08:56:35.581Z,11.73
2018-01-22T09:02:39.017Z,11.17
2018-01-22T09:08:43.232Z,10.70
2018-01-22T09:14:46.638Z,11.27
2018-01-22T09:20:50.057Z,10.60
2018-01-22T09:26:53.533Z,10.47
2018-01-22T09:32:56.948Z,11.60
2018-01-22T09:39:00.622Z,10.20
2018-01-22T09:45:04.021Z,10.53
2018-01-22T09:51:08.191Z,11.00
2018-01-22T09:57:11.615Z,9.17
2018-01-22T10:03:15.047Z,10.47
2018-01-22T10:09:19.232Z,8.73
2018-01-22T10:15:22.654Z,9.43
2018-01-22T10:21:26.070Z,7.47
2018-01-22T10:27:29.495Z,8.67
2018-01-22T10:33:33.038Z,10.27
2018-01-22T10:39:36.468Z,7.80
2018-01-22T10:45:39.891Z,8.67
2018-01-22T10:51:44.072Z,7.80
2018-01-22T10:57:47.483Z,7.50
2018-01-22T11:03:50.881Z,7.63
2018-01-22T11:09:55.062Z,9.00
2018-01-22T11:16:03.848Z,7.40
2018-01-22T11:22:08.033Z,8.10
2018-01-22T11:28:11.450Z,7.47
2018-01-22T11:34:14.945Z,6.17
2018-01-22T11:40:18.398Z,9.10
2018-01-22T11:46:21.823Z,9.80
2018-01-22T11:52:25.277Z,8.20
2018-01-22T11:58:28.707Z,7.73
2018-01-22T12:04:32.904Z,7.50
2018-01-22T12:10:37.076Z,8.27
2018-01-22T12:16:40.486Z,8.43
2018-01-22T12:22:43.898Z,7.90
2018-01-22T12:28:47.302Z,8.10
2018-01-22T12:34:50.703Z,7.93
2018-01-22T12:40:54.103Z,7.10
2018-01-22T12:46:57.493Z,8.40
2018-01-22T12:53:01.657Z,7.87
2018-01-22T12:59:05.055Z,6.10
2018-01-22T13:05:09.205Z,7.50
2018-01-22T13:11:12.602Z,7.30
2018-01-22T13:17:16.788Z,6.20
2018-01-22T13:23:20.226Z,6.83
2018-01-22T13:29:23.650Z,7.30
2018-01-22T13:35:27.129Z,7.50
2018-01-22T13:41:30.999Z,7.57
2018-01-22T13:47:34.406Z,6.80
2018-01-22T13:53:37.802Z,7.50
2018-01-22T13:59:41.221Z,7.27
2018-01-22T14:05:44.698Z,6.40
2018-01-22T14:11:48.873Z,6.80
2018-01-22T14:17:52.275Z,6.07
2018-01-22T14:23:55.678Z,8.17
2018-01-22T14:29:59.842Z,9.50
2018-01-22T14:36:03.298Z,7.20
2018-01-22T14:42:06.710Z,7.80
2018-01-22T14:48:10.108Z,7.50
2018-01-22T14:54:13.490Z,7.83
2018-01-22T15:00:16.932Z,7.13
2018-01-22T15:06:20.349Z,7.13
2018-01-22T15:12:23.775Z,7.60
2018-01-22T15:18:27.187Z,8.43
2018-01-22T15:24:30.624Z,7.43
2018-01-22T15:30:34.027Z,8.03
2018-01-22T15:36:37.455Z,9.30
2018-01-22T15:42:40.891Z,8.30
2018-01-22T15:48:44.398Z,7.90
2018-01-22T15:54:47.748Z,7.40
2018-01-22T16:00:51.958Z,8.43
2018-01-22T16:06:55.354Z,9.17
2018-01-22T16:12:58.759Z,7.90
2018-01-22T16:19:02.979Z,12.20
2018-01-22T16:25:06.377Z,10.30
2018-01-22T16:31:09.821Z,10.23
2018-01-22T16:37:13.241Z,11.23
2018-01-22T16:49:27.984Z,10.70
2018-01-22T16:55:32.153Z,14.77
2018-01-22T17:01:35.601Z,17.00
2018-01-22T17:07:39.046Z,10.33
2018-01-22T17:13:43.223Z,9.47
2018-01-22T17:19:46.722Z,9.50
2018-01-22T17:25:50.886Z,9.40
2018-01-22T17:31:54.324Z,11.67
2018-01-22T17:37:58.508Z,13.10
2018-01-22T17:44:02.714Z,13.73
2018-01-22T17:50:06.141Z,13.87
2018-01-22T17:56:09.604Z,14.80
2018-01-22T18:02:13.089Z,16.40
2018-01-22T18:08:16.516Z,14.40
2018-01-22T18:14:20.700Z,15.37
2018-01-22T18:20:24.115Z,14.63
2018-01-22T18:26:27.542Z,14.80
2018-01-22T18:32:30.986Z,15.57
2018-01-22T18:38:34.388Z,29.90
2018-01-22T18:44:37.811Z,17.70
2018-01-22T18:50:41.220Z,16.93
2018-01-22T18:56:44.636Z,17.00
2018-01-22T19:02:48.048Z,19.77
2018-01-22T19:08:51.493Z,15.43
2018-01-22T19:14:54.908Z,14.57
2018-01-22T19:20:58.346Z,13.70
2018-01-22T19:27:01.752Z,13.30
2018-01-22T19:33:05.161Z,12.50
2018-01-22T19:39:08.583Z,14.67
2018-01-22T19:45:12.018Z,16.23
2018-01-22T19:51:15.453Z,16.90
2018-01-22T19:57:18.816Z,13.73
2018-01-22T20:03:22.291Z,13.53
2018-01-22T20:09:25.741Z,16.10
2018-01-22T20:15:30.052Z,16.43
2018-01-22T20:21:34.275Z,16.40
2018-01-22T20:27:37.729Z,19.20
2018-01-22T20:33:41.161Z,21.13
2018-01-22T20:39:44.562Z,20.40
2018-01-22T20:45:48.743Z,16.70
2018-01-22T20:51:52.155Z,15.23
2018-01-22T20:57:55.571Z,12.70
2018-01-22T21:03:59.055Z,14.30
2018-01-22T21:10:03.245Z,17.73
2018-01-22T21:16:06.673Z,13.07
2018-01-22T21:22:10.100Z,17.07
2018-01-22T21:28:13.532Z,18.60
2018-01-22T21:34:17.016Z,17.77
2018-01-22T21:40:20.455Z,17.80
2018-01-22T21:46:23.885Z,17.40
2018-01-22T21:52:27.325Z,16.67
2018-01-22T21:58:31.484Z,15.97
2018-01-22T22:04:34.877Z,38.27
2018-01-22T22:10:39.067Z,24.67
2018-01-22T22:16:42.746Z,28.50
2018-01-22T22:22:46.962Z,18.70
2018-01-22T22:28:51.208Z,18.27
2018-01-22T22:34:54.606Z,16.97
2018-01-22T22:40:58.000Z,18.30
2018-01-22T22:47:01.431Z,18.00
2018-01-22T22:53:05.601Z,18.20
2018-01-22T22:59:09.780Z,18.30
2018-01-22T23:05:13.202Z,16.90
2018-01-22T23:11:16.599Z,16.27
2018-01-22T23:17:20.002Z,18.50
2018-01-22T23:23:24.230Z,16.57
2018-01-22T23:29:27.635Z,18.57
2018-01-22T23:35:31.034Z,17.30
2018-01-22T23:41:34.427Z,16.67
2018-01-22T23:47:37.844Z,13.33
2018-01-22T23:53:41.237Z,19.20
2018-01-22T23:59:45.428Z,18.73
